Time;durP1;ratioP1;P1;durP2;ratioP2;P2;SDS_P1;SDS_P2;PMS_P1;PMS_P2;Temp;Humidity;BMP_temperature;BMP_pressure;BME280_temperature;BME280_humidity;BME280_pressure;Samples;Min_cycle;Max_cycle;Signal;HPM_P1;HPM_P2
2023/01/21 00:00:14;;;;;;;25.02;13.55;;;;;6.20;102404.00;;;;5088731;28;20209;-74
2023/01/21 00:02:41;;;;;;;25.52;14.65;;;;;6.20;102403.00;;;;5082153;28;20194;-74
2023/01/21 00:05:10;;;;;;;26.67;13.32;;;;;6.10;102401.00;;;;5077262;28;20202;-74
2023/01/21 00:07:37;;;;;;;25.30;14.02;;;;;6.10;102397.00;;;;5069647;28;20222;-74
2023/01/21 00:10:05;;;;;;;25.17;14.00;;;;;6.10;102414.00;;;;5073641;28;20199;-74
2023/01/21 00:12:32;;;;;;;27.30;15.45;;;;;6.10;102426.00;;;;5068111;28;20207;-74
2023/01/21 00:14:59;;;;;;;24.50;13.95;;;;;6.10;102420.00;;;;5071181;28;20676;-74
2023/01/21 00:17:27;;;;;;;23.33;14.32;;;;;6.10;102434.00;;;;5089053;28;20209;-74
2023/01/21 00:19:54;;;;;;;29.88;15.02;;;;;6.10;102432.00;;;;5087734;28;20194;-74
2023/01/21 00:22:23;;;;;;;23.92;13.57;;;;;6.10;102443.00;;;;5075465;28;20206;-74
2023/01/21 00:24:50;;;;;;;21.48;13.18;;;;;6.10;102450.00;;;;5069910;28;20203;-74
2023/01/21 00:27:17;;;;;;;22.77;13.23;;;;;6.10;102448.00;;;;5068848;28;20194;-74
2023/01/21 00:29:44;;;;;;;24.20;14.10;;;;;6.10;102455.00;;;;5085674;28;20414;-74
2023/01/21 00:32:12;;;;;;;24.98;13.30;;;;;6.10;102456.00;;;;5087669;28;20197;-74
2023/01/21 00:34:39;;;;;;;24.73;13.98;;;;;6.10;102459.00;;;;5088167;28;20202;-74
2023/01/21 00:37:06;;;;;;;23.40;13.88;;;;;6.10;102469.00;;;;5089227;28;20203;-74
2023/01/21 00:39:35;;;;;;;23.55;12.60;;;;;6.00;102470.00;;;;5080675;28;20670;-74
2023/01/21 00:42:03;;;;;;;22.58;12.90;;;;;6.00;102474.00;;;;5088792;28;20198;-74
2023/01/21 00:44:30;;;;;;;21.88;12.50;;;;;6.00;102475.00;;;;5074119;28;20201;-74
2023/01/21 00:46:57;;;;;;;20.77;13.07;;;;;6.00;102481.00;;;;5069501;28;20203;-74
2023/01/21 00:49:25;;;;;;;18.90;11.32;;;;;6.00;102476.00;;;;5076523;28;20218;-74
2023/01/21 00:51:52;;;;;;;23.15;12.25;;;;;6.00;102482.00;;;;5076644;28;20195;-74
2023/01/21 00:54:19;;;;;;;21.13;12.50;;;;;6.00;102481.00;;;;5069258;28;20209;-74
2023/01/21 00:56:48;;;;;;;21.02;12.98;;;;;6.00;102483.00;;;;5068721;28;20198;-74
2023/01/21 00:59:16;;;;;;;21.27;12.45;;;;;6.00;102482.00;;;;5078528;28;20198;-74
2023/01/21 01:01:43;;;;;;;22.13;12.20;;;;;6.00;102490.00;;;;5087363;28;20202;-74
2023/01/21 01:04:11;;;;;;;22.98;12.13;;;;;6.00;102482.00;;;;5070238;28;20222;-74
2023/01/21 01:06:38;;;;;;;26.00;13.25;;;;;6.00;102491.00;;;;5071428;28;20214;-74
2023/01/21 01:09:06;;;;;;;22.05;12.13;;;;;6.00;102491.00;;;;5083007;28;20218;-74
2023/01/21 01:11:34;;;;;;;21.40;12.82;;;;;6.00;102488.00;;;;5088466;28;20277;-74
2023/01/21 01:14:02;;;;;;;21.38;12.65;;;;;6.00;102486.00;;;;5086296;28;20205;-74
2023/01/21 01:16:30;;;;;;;21.67;11.77;;;;;6.00;102500.00;;;;5087566;28;20214;-74
2023/01/21 01:18:57;;;;;;;19.67;11.23;;;;;6.00;102496.00;;;;5083539;28;20995;-74
2023/01/21 01:21:24;;;;;;;21.73;12.10;;;;;6.00;102506.00;;;;5088947;28;20201;-74
2023/01/21 01:23:53;;;;;;;20.67;11.73;;;;;6.00;102503.00;;;;5083491;28;20214;-74
2023/01/21 01:26:21;;;;;;;21.10;11.82;;;;;5.90;102505.00;;;;5078955;28;20194;-74
2023/01/21 01:28:49;;;;;;;22.80;12.80;;;;;5.90;102509.00;;;;5069570;28;20223;-75
2023/01/21 01:31:19;;;;;;;20.48;10.95;;;;;5.90;102515.00;;;;5081498;28;20691;-74
2023/01/21 01:33:47;;;;;;;17.90;11.40;;;;;5.90;102520.00;;;;5073636;28;20211;-74
2023/01/21 01:36:16;;;;;;;19.80;11.57;;;;;5.90;102525.00;;;;5068107;28;20711;-74
2023/01/21 01:38:44;;;;;;;19.42;11.98;;;;;5.90;102531.00;;;;5069342;28;20210;-74
2023/01/21 01:41:16;;;;;;;21.67;11.48;;;;;5.80;102541.00;;;;5076229;28;20198;-75
2023/01/21 01:43:53;;;;;;;20.35;11.52;;;;;5.80;102545.00;;;;5081076;28;20881;-74
2023/01/21 01:46:22;;;;;;;20.95;10.82;;;;;5.80;102549.00;;;;5072942;28;20229;-74
2023/01/21 01:48:55;;;;;;;19.50;11.43;;;;;5.80;102555.00;;;;5083576;28;20219;-74
2023/01/21 01:51:30;;;;;;;19.25;11.05;;;;;5.80;102556.00;;;;5072988;28;20205;-74
2023/01/21 01:53:57;;;;;;;19.25;11.27;;;;;5.80;102554.00;;;;5088271;28;20239;-75
2023/01/21 01:56:25;;;;;;;19.05;10.48;;;;;5.80;102559.00;;;;5087964;28;20202;-75
2023/01/21 01:58:53;;;;;;;21.75;11.13;;;;;5.80;102565.00;;;;5087906;28;20201;-74
2023/01/21 02:01:23;;;;;;;20.80;10.98;;;;;5.80;102561.00;;;;5086124;28;20214;-74
2023/01/21 02:03:58;;;;;;;19.33;10.32;;;;;5.80;102556.00;;;;5078282;28;20194;-74
2023/01/21 02:06:26;;;;;;;17.90;9.65;;;;;5.80;102560.00;;;;5081847;28;20198;-74
2023/01/21 02:08:55;;;;;;;19.25;10.52;;;;;5.80;102566.00;;;;5079550;28;20692;-74
2023/01/21 02:11:23;;;;;;;18.38;11.07;;;;;5.80;102570.00;;;;5077695;28;20212;-75
2023/01/21 02:13:53;;;;;;;18.63;10.50;;;;;5.80;102578.00;;;;5084932;28;20213;-75
2023/01/21 02:16:46;;;;;;;18.27;10.50;;;;;5.70;102573.00;;;;5088201;28;20237;-75
2023/01/21 02:19:53;;;;;;;19.02;10.25;;;;;5.70;102593.00;;;;5066728;28;20194;-74
2023/01/21 02:22:29;;;;;;;21.38;11.35;;;;;5.70;102594.00;;;;5077434;28;20237;-75
2023/01/21 02:25:35;;;;;;;21.10;11.18;;;;;5.60;102602.00;;;;5087452;28;20202;-75
2023/01/21 02:28:31;;;;;;;18.10;10.05;;;;;5.60;102603.00;;;;5088137;28;20194;-75
2023/01/21 02:31:26;;;;;;;17.50;10.20;;;;;5.60;102614.00;;;;5049528;28;20210;-75
2023/01/21 02:34:01;;;;;;;19.48;10.13;;;;;5.70;102619.00;;;;5084094;28;20201;-75
2023/01/21 02:36:54;;;;;;;17.30;9.95;;;;;5.60;102615.00;;;;5085584;28;20197;-75
2023/01/21 02:39:29;;;;;;;21.08;11.38;;;;;5.60;102612.00;;;;5082404;28;20202;-75
2023/01/21 02:42:05;;;;;;;15.98;9.80;;;;;5.70;102613.00;;;;5077743;28;20191;-75
2023/01/21 02:44:38;;;;;;;19.83;10.32;;;;;5.70;102608.00;;;;5076757;28;20198;-75
2023/01/21 02:47:16;;;;;;;19.95;10.73;;;;;5.60;102610.00;;;;5083077;28;20201;-75
2023/01/21 02:49:49;;;;;;;18.50;10.07;;;;;5.60;102617.00;;;;5077455;28;20229;-75
2023/01/21 02:52:21;;;;;;;16.25;9.70;;;;;5.60;102613.00;;;;5072827;28;20656;-75
2023/01/21 02:54:54;;;;;;;19.63;10.23;;;;;5.60;102617.00;;;;5070613;28;20195;-75
2023/01/21 02:57:39;;;;;;;18.60;10.50;;;;;5.60;102621.00;;;;5083222;28;20202;-75
2023/01/21 03:00:13;;;;;;;23.23;10.82;;;;;5.60;102632.00;;;;5089649;28;20197;-75
2023/01/21 03:02:58;;;;;;;18.92;10.38;;;;;5.50;102622.00;;;;5076469;28;20206;-75
2023/01/21 03:05:40;;;;;;;20.58;12.02;;;;;5.60;102641.00;;;;5077115;28;20572;-75
2023/01/21 03:08:12;;;;;;;19.75;10.88;;;;;5.60;102640.00;;;;5091034;28;20198;-75
2023/01/21 03:10:42;;;;;;;17.77;10.38;;;;;5.60;102653.00;;;;5090085;28;20198;-75
2023/01/21 03:16:55;;;;;;;17.92;10.23;;;;;5.60;102658.00;;;;5074282;28;20225;-75
2023/01/21 03:18:57;;;;;;;19.17;10.50;;;;;5.60;102657.00;;;;5082330;28;20202;-75
2023/01/21 03:21:29;;;;;;;18.50;9.90;;;;;5.50;102656.00;;;;5084746;28;20205;-75
2023/01/21 03:23:57;;;;;;;18.92;10.15;;;;;5.60;102663.00;;;;5075300;28;20210;-75
2023/01/21 03:26:30;;;;;;;18.35;9.80;;;;;5.50;102662.00;;;;5079994;28;20206;-75
2023/01/21 03:29:02;;;;;;;17.55;9.85;;;;;5.50;102661.00;;;;5071012;28;20230;-75
2023/01/21 03:31:33;;;;;;;18.05;9.68;;;;;5.50;102655.00;;;;5073212;28;20200;-75
2023/01/21 03:34:05;;;;;;;20.13;10.32;;;;;5.50;102664.00;;;;5085634;28;20273;-75
2023/01/21 03:36:40;;;;;;;19.67;10.25;;;;;5.50;102665.00;;;;5090800;28;20198;-74
2023/01/21 03:39:13;;;;;;;19.23;10.10;;;;;5.50;102666.00;;;;5089948;28;20225;-75
2023/01/21 03:41:41;;;;;;;15.85;9.43;;;;;5.60;102672.00;;;;5087425;28;20191;-76
2023/01/21 03:44:08;;;;;;;17.52;9.30;;;;;5.50;102677.00;;;;5084321;28;20226;-75
2023/01/21 03:46:41;;;;;;;18.75;10.15;;;;;5.50;102677.00;;;;5069223;28;20238;-75
2023/01/21 03:49:17;;;;;;;20.38;9.52;;;;;5.50;102659.00;;;;5069600;28;20229;-75
2023/01/21 03:51:51;;;;;;;18.55;10.57;;;;;5.50;102668.00;;;;5072497;28;20308;-76
2023/01/21 03:54:18;;;;;;;18.25;10.40;;;;;5.50;102669.00;;;;5081309;28;20230;-75
2023/01/21 03:56:46;;;;;;;17.67;9.18;;;;;5.50;102667.00;;;;5080093;28;20194;-75
2023/01/21 03:59:13;;;;;;;18.17;10.48;;;;;5.50;102669.00;;;;5089573;28;20664;-75
2023/01/21 04:01:40;;;;;;;20.13;10.15;;;;;5.50;102677.00;;;;5079824;28;20191;-75
2023/01/21 04:04:09;;;;;;;13.55;8.85;;;;;5.50;102669.00;;;;5084551;28;20190;-75
2023/01/21 04:06:36;;;;;;;18.85;10.90;;;;;5.50;102676.00;;;;5086816;28;20199;-74
2023/01/21 04:09:06;;;;;;;19.30;9.90;;;;;5.50;102677.00;;;;5077433;28;20632;-75
2023/01/21 04:11:33;;;;;;;17.35;10.45;;;;;5.50;102681.00;;;;5087315;28;20203;-75
2023/01/21 04:14:00;;;;;;;16.02;9.52;;;;;5.50;102683.00;;;;5088713;28;20217;-75
2023/01/21 04:16:28;;;;;;;16.75;9.35;;;;;5.50;102687.00;;;;5089279;28;20213;-75
2023/01/21 04:18:55;;;;;;;19.45;10.70;;;;;5.50;102686.00;;;;5089679;28;20202;-75
2023/01/21 04:21:22;;;;;;;17.27;10.05;;;;;5.50;102692.00;;;;5088677;28;20206;-75
2023/01/21 04:23:50;;;;;;;15.93;10.18;;;;;5.50;102709.00;;;;5070009;28;20198;-75
2023/01/21 04:26:18;;;;;;;17.45;10.38;;;;;5.50;102693.00;;;;5078839;28;20201;-74
2023/01/21 04:28:46;;;;;;;19.65;9.02;;;;;5.50;102692.00;;;;5089022;28;20194;-75
2023/01/21 04:31:13;;;;;;;19.13;10.40;;;;;5.50;102702.00;;;;5088782;28;20237;-75
2023/01/21 04:33:40;;;;;;;17.42;10.45;;;;;5.50;102705.00;;;;5083592;28;20199;-75
2023/01/21 04:36:08;;;;;;;18.83;10.25;;;;;5.40;102708.00;;;;5068746;28;20195;-75
2023/01/21 04:38:36;;;;;;;14.85;9.02;;;;;5.40;102703.00;;;;5071648;28;20205;-75
2023/01/21 04:41:03;;;;;;;18.65;10.32;;;;;5.40;102709.00;;;;5068325;28;20199;-75
2023/01/21 04:43:31;;;;;;;18.95;10.35;;;;;5.40;102706.00;;;;5078273;28;20214;-75
2023/01/21 04:45:59;;;;;;;19.92;10.40;;;;;5.40;102714.00;;;;5088913;28;20237;-75
2023/01/21 04:48:26;;;;;;;18.17;10.52;;;;;5.40;102711.00;;;;5085415;28;20206;-75
2023/01/21 04:50:53;;;;;;;20.40;11.43;;;;;5.40;102715.00;;;;5072752;28;20438;-75
2023/01/21 04:53:21;;;;;;;18.23;10.30;;;;;5.40;102715.00;;;;5083958;28;20213;-74
2023/01/21 04:55:50;;;;;;;18.70;10.60;;;;;5.40;102716.00;;;;5073914;28;20194;-75
2023/01/21 04:58:17;;;;;;;19.40;10.50;;;;;5.40;102716.00;;;;5068516;28;20218;-75
2023/01/21 05:00:46;;;;;;;16.20;9.30;;;;;5.40;102727.00;;;;5068577;28;20198;-75
2023/01/21 05:03:14;;;;;;;18.48;10.77;;;;;5.50;102727.00;;;;5077017;28;20202;-74
2023/01/21 05:05:41;;;;;;;18.65;9.43;;;;;5.50;102730.00;;;;5079924;28;20202;-74
2023/01/21 05:08:09;;;;;;;17.35;9.93;;;;;5.50;102727.00;;;;5087246;28;20199;-75
2023/01/21 05:10:36;;;;;;;18.45;10.27;;;;;5.50;102726.00;;;;5088305;28;20699;-75
2023/01/21 05:13:03;;;;;;;17.92;10.00;;;;;5.40;102732.00;;;;5070146;28;20217;-75
2023/01/21 05:15:31;;;;;;;16.60;10.02;;;;;5.40;102739.00;;;;5087437;28;20198;-75
2023/01/21 05:18:00;;;;;;;17.15;10.02;;;;;5.40;102741.00;;;;5083987;28;20194;-75
2023/01/21 05:20:27;;;;;;;17.35;9.93;;;;;5.40;102742.00;;;;5072473;28;20199;-75
2023/01/21 05:22:54;;;;;;;16.30;9.25;;;;;5.40;102750.00;;;;5081044;28;21366;-75
2023/01/21 05:25:22;;;;;;;17.80;9.75;;;;;5.50;102759.00;;;;5068363;28;20214;-75
2023/01/21 05:27:53;;;;;;;18.02;9.27;;;;;5.40;102747.00;;;;5069030;28;20205;-75
2023/01/21 05:30:20;;;;;;;18.38;9.65;;;;;5.40;102757.00;;;;5072321;28;20226;-75
2023/01/21 05:32:51;;;;;;;17.42;10.45;;;;;5.40;102753.00;;;;5067093;28;20195;-75
2023/01/21 05:35:21;;;;;;;17.52;9.50;;;;;5.40;102753.00;;;;5069804;28;20697;-75
2023/01/21 05:37:48;;;;;;;17.20;9.57;;;;;5.40;102755.00;;;;5069705;28;20210;-75
2023/01/21 05:40:16;;;;;;;17.00;9.07;;;;;5.40;102761.00;;;;5076778;28;20205;-75
2023/01/21 05:42:43;;;;;;;19.77;10.35;;;;;5.40;102763.00;;;;5077440;28;20221;-75
2023/01/21 05:45:12;;;;;;;17.25;9.98;;;;;5.40;102765.00;;;;5085786;28;20230;-75
2023/01/21 05:47:39;;;;;;;20.75;10.07;;;;;5.40;102766.00;;;;5080923;28;20186;-75
2023/01/21 05:50:08;;;;;;;17.65;9.80;;;;;5.40;102776.00;;;;5068281;28;20226;-75
2023/01/21 05:52:38;;;;;;;16.48;10.05;;;;;5.40;102776.00;;;;5076418;28;20217;-75
2023/01/21 05:55:06;;;;;;;18.20;9.98;;;;;5.40;102775.00;;;;5069547;28;20195;-75
2023/01/21 05:57:34;;;;;;;20.25;10.85;;;;;5.30;102773.00;;;;5069378;28;20199;-75
2023/01/21 06:00:01;;;;;;;20.27;10.95;;;;;5.30;102777.00;;;;5070394;28;20213;-75
2023/01/21 06:02:28;;;;;;;19.70;10.52;;;;;5.30;102779.00;;;;5084116;28;20203;-75
2023/01/21 06:04:55;;;;;;;21.23;10.88;;;;;5.30;102779.00;;;;5085844;28;20194;-75
2023/01/21 06:07:23;;;;;;;21.65;11.05;;;;;5.30;102788.00;;;;5088473;28;20198;-74
2023/01/21 06:09:51;;;;;;;19.35;10.48;;;;;5.30;102792.00;;;;5086852;28;20222;-74
2023/01/21 06:12:19;;;;;;;21.33;11.13;;;;;5.30;102797.00;;;;5079827;28;20210;-75
2023/01/21 06:14:46;;;;;;;21.85;11.50;;;;;5.30;102797.00;;;;5086949;28;20198;-75
2023/01/21 06:17:13;;;;;;;22.52;11.80;;;;;5.30;102793.00;;;;5086560;28;20187;-75
2023/01/21 06:19:40;;;;;;;19.65;10.52;;;;;5.30;102800.00;;;;5088061;28;20206;-75
2023/01/21 06:22:10;;;;;;;19.17;11.38;;;;;5.30;102803.00;;;;5078250;28;20200;-75
2023/01/21 06:24:37;;;;;;;21.90;11.43;;;;;5.30;102803.00;;;;5067677;28;20195;-75
2023/01/21 06:27:06;;;;;;;19.55;10.10;;;;;5.30;102819.00;;;;5068875;28;20281;-75
2023/01/21 06:29:33;;;;;;;22.00;11.27;;;;;5.30;102820.00;;;;5073465;28;20695;-76
2023/01/21 06:32:00;;;;;;;21.83;12.23;;;;;5.30;102827.00;;;;5090852;28;20202;-75
2023/01/21 06:34:28;;;;;;;21.02;11.27;;;;;5.30;102826.00;;;;5082736;28;20195;-75
2023/01/21 06:36:55;;;;;;;22.25;10.57;;;;;5.30;102821.00;;;;5071335;28;20571;-75
2023/01/21 06:39:22;;;;;;;22.38;11.65;;;;;5.40;102836.00;;;;5071272;28;20665;-75
2023/01/21 06:41:50;;;;;;;19.85;10.63;;;;;5.40;102837.00;;;;5074561;28;20187;-75
2023/01/21 06:44:18;;;;;;;18.95;10.85;;;;;5.40;102841.00;;;;5086843;28;20215;-75
2023/01/21 06:46:46;;;;;;;23.77;12.55;;;;;5.40;102846.00;;;;5074277;28;20234;-75
2023/01/21 06:49:13;;;;;;;20.33;11.82;;;;;5.40;102855.00;;;;5071617;28;20213;-75
2023/01/21 06:51:41;;;;;;;21.40;11.20;;;;;5.40;102862.00;;;;5083908;28;20195;-75
2023/01/21 06:54:10;;;;;;;24.00;11.32;;;;;5.40;102865.00;;;;5080299;28;20276;-75
2023/01/21 06:56:39;;;;;;;20.67;11.13;;;;;5.40;102867.00;;;;5078528;28;20193;-75
2023/01/21 06:59:07;;;;;;;23.92;12.35;;;;;5.40;102863.00;;;;5082241;28;20213;-75
2023/01/21 07:01:35;;;;;;;22.05;11.15;;;;;5.40;102874.00;;;;5077587;28;20559;-75
2023/01/21 07:04:03;;;;;;;23.45;12.10;;;;;5.50;102881.00;;;;5074894;28;20195;-75
2023/01/21 07:06:30;;;;;;;23.10;12.02;;;;;5.50;102887.00;;;;5081218;28;20191;-75
2023/01/21 07:08:57;;;;;;;25.20;12.02;;;;;5.50;102876.00;;;;5078568;28;20198;-75
2023/01/21 07:11:25;;;;;;;22.50;12.23;;;;;5.50;102886.00;;;;5075254;28;20219;-75
2023/01/21 07:13:52;;;;;;;22.27;10.77;;;;;5.50;102877.00;;;;5080977;28;20260;-75
2023/01/21 07:16:19;;;;;;;24.35;11.68;;;;;5.50;102879.00;;;;5082286;28;20198;-75
2023/01/21 07:18:48;;;;;;;23.02;11.05;;;;;5.50;102880.00;;;;5080059;28;20195;-75
2023/01/21 07:21:15;;;;;;;22.90;10.82;;;;;5.50;102882.00;;;;5079383;28;20202;-75
2023/01/21 07:23:43;;;;;;;25.50;11.82;;;;;5.60;102888.00;;;;5077164;28;20272;-75
2023/01/21 07:26:11;;;;;;;24.20;11.73;;;;;5.60;102888.00;;;;5078846;28;20202;-75
2023/01/21 07:28:38;;;;;;;27.70;13.30;;;;;5.60;102897.00;;;;5075082;28;20222;-75
2023/01/21 07:31:05;;;;;;;22.27;11.40;;;;;5.60;102886.00;;;;5076749;28;20230;-75
2023/01/21 07:33:33;;;;;;;22.98;10.70;;;;;5.70;102890.00;;;;5078422;28;20554;-75
2023/01/21 07:36:01;;;;;;;24.23;11.73;;;;;5.70;102900.00;;;;5077000;28;20297;-75
2023/01/21 07:38:29;;;;;;;22.00;10.85;;;;;5.70;102910.00;;;;5076109;28;20195;-75
2023/01/21 07:40:56;;;;;;;28.65;13.60;;;;;5.70;102916.00;;;;5079046;28;20221;-75
2023/01/21 07:43:23;;;;;;;22.45;12.02;;;;;5.80;102925.00;;;;5078583;28;20223;-75
2023/01/21 07:45:51;;;;;;;23.80;12.43;;;;;5.80;102922.00;;;;5078190;28;20259;-75
2023/01/21 07:48:18;;;;;;;20.15;11.02;;;;;5.80;102924.00;;;;5077998;28;20209;-75
2023/01/21 07:50:46;;;;;;;24.08;12.15;;;;;5.80;102926.00;;;;5079200;28;20237;-75
2023/01/21 07:53:14;;;;;;;22.40;10.77;;;;;5.80;102929.00;;;;5081695;28;20285;-74
2023/01/21 07:55:42;;;;;;;22.48;11.35;;;;;5.90;102940.00;;;;5078199;28;20199;-75
2023/01/21 07:58:09;;;;;;;24.10;12.05;;;;;5.90;102947.00;;;;5076851;28;20195;-75
2023/01/21 08:00:36;;;;;;;25.35;11.73;;;;;5.90;102950.00;;;;5073752;28;20195;-75
2023/01/21 08:03:04;;;;;;;26.15;12.13;;;;;5.90;102957.00;;;;5080433;28;20209;-75
2023/01/21 08:05:32;;;;;;;24.52;12.07;;;;;5.90;102967.00;;;;5080379;28;20206;-75
2023/01/21 08:07:59;;;;;;;28.75;12.88;;;;;5.90;102969.00;;;;5077549;28;20193;-75
2023/01/21 08:10:28;;;;;;;21.65;10.40;;;;;5.90;102982.00;;;;5075479;28;20229;-75
2023/01/21 08:12:55;;;;;;;26.33;12.45;;;;;5.90;102985.00;;;;5083185;28;20753;-75
2023/01/21 08:15:23;;;;;;;22.70;11.10;;;;;6.00;102981.00;;;;5090714;28;20190;-75
2023/01/21 08:17:50;;;;;;;26.00;12.57;;;;;6.00;102992.00;;;;5085149;28;20187;-76
2023/01/21 08:20:17;;;;;;;25.63;12.00;;;;;6.00;102999.00;;;;5090278;28;20214;-75
2023/01/21 08:22:45;;;;;;;21.38;10.82;;;;;6.00;102987.00;;;;5090084;28;21032;-75
2023/01/21 08:25:12;;;;;;;23.75;12.15;;;;;6.10;103003.00;;;;5072981;28;20203;-74
2023/01/21 08:27:41;;;;;;;22.73;11.48;;;;;6.00;103004.00;;;;5074980;28;20198;-75
2023/01/21 08:30:09;;;;;;;25.38;12.35;;;;;6.10;103001.00;;;;5080463;28;20230;-75
2023/01/21 08:32:36;;;;;;;24.00;11.63;;;;;6.10;103000.00;;;;5081746;28;20202;-75
2023/01/21 08:35:05;;;;;;;24.58;12.93;;;;;6.20;103011.00;;;;5087443;28;20190;-75
2023/01/21 08:37:32;;;;;;;27.50;12.35;;;;;6.20;102999.00;;;;5070917;28;20291;-75
2023/01/21 08:39:59;;;;;;;26.33;12.88;;;;;6.30;103006.00;;;;5068913;28;20190;-75
2023/01/21 08:42:27;;;;;;;27.77;12.57;;;;;6.30;103006.00;;;;5069305;28;20228;-75
2023/01/21 08:44:55;;;;;;;23.13;12.25;;;;;6.30;103014.00;;;;5077753;28;20222;-75
2023/01/21 08:47:25;;;;;;;26.75;12.85;;;;;6.40;103015.00;;;;5077013;28;20203;-75
2023/01/21 08:49:53;;;;;;;23.35;11.65;;;;;6.40;103017.00;;;;5072740;28;20738;-76
2023/01/21 08:52:21;;;;;;;24.55;12.00;;;;;6.50;103018.00;;;;5084705;28;20198;-75
2023/01/21 08:54:49;;;;;;;23.20;11.52;;;;;6.50;103020.00;;;;5087361;28;20197;-76
2023/01/21 08:57:16;;;;;;;28.15;12.40;;;;;6.60;103027.00;;;;5076771;28;20205;-75
2023/01/21 08:59:43;;;;;;;22.08;10.15;;;;;6.60;103030.00;;;;5071619;28;20191;-75
2023/01/21 09:02:13;;;;;;;23.63;11.07;;;;;6.60;103038.00;;;;5071108;28;20202;-75
2023/01/21 09:04:40;;;;;;;22.30;10.10;;;;;6.70;103033.00;;;;5079189;28;20225;-75
2023/01/21 09:07:08;;;;;;;19.70;9.65;;;;;6.70;103036.00;;;;5086644;28;20213;-75
2023/01/21 09:09:35;;;;;;;21.15;10.63;;;;;6.70;103033.00;;;;5080152;28;20195;-75
2023/01/21 09:12:04;;;;;;;19.77;10.20;;;;;6.80;103035.00;;;;5072335;28;20230;-74
2023/01/21 09:14:32;;;;;;;22.00;10.13;;;;;6.80;103040.00;;;;5069940;28;20206;-74
2023/01/21 09:16:59;;;;;;;21.35;10.50;;;;;6.80;103047.00;;;;5071075;28;20297;-74
2023/01/21 09:19:28;;;;;;;23.52;12.18;;;;;6.90;103049.00;;;;5072792;28;20193;-74
2023/01/21 09:21:55;;;;;;;22.85;10.63;;;;;7.00;103050.00;;;;5082857;28;20624;-74
2023/01/21 09:24:23;;;;;;;22.77;10.52;;;;;7.00;103051.00;;;;5068373;28;20195;-74
2023/01/21 09:26:51;;;;;;;24.10;11.18;;;;;7.10;103058.00;;;;5068101;28;20633;-74
2023/01/21 09:29:18;;;;;;;23.05;10.68;;;;;7.10;103051.00;;;;5067860;28;20740;-74
2023/01/21 09:31:45;;;;;;;21.60;10.75;;;;;7.20;103056.00;;;;5082724;28;20719;-75
2023/01/21 09:34:13;;;;;;;23.52;10.77;;;;;7.20;103054.00;;;;5088754;28;20190;-75
2023/01/21 09:36:41;;;;;;;22.27;10.85;;;;;7.30;103050.00;;;;5087049;28;20206;-75
2023/01/21 09:39:08;;;;;;;22.23;11.10;;;;;7.40;103055.00;;;;5079395;28;20198;-75
2023/01/21 09:41:38;;;;;;;20.98;10.35;;;;;7.40;103055.00;;;;5074124;28;20198;-75
2023/01/21 09:44:14;;;;;;;23.52;11.10;;;;;7.40;103065.00;;;;5083299;28;20243;-74
2023/01/21 09:46:54;;;;;;;22.88;10.68;;;;;7.50;103054.00;;;;5083813;28;20229;-74
2023/01/21 09:49:25;;;;;;;22.45;10.52;;;;;7.60;103061.00;;;;5080444;28;20692;-75
2023/01/21 09:52:06;;;;;;;19.95;10.30;;;;;7.60;103068.00;;;;5087576;28;20218;-74
2023/01/21 09:54:36;;;;;;;22.52;10.35;;;;;7.70;103070.00;;;;5084904;28;20202;-75
2023/01/21 09:57:34;;;;;;;21.23;10.50;;;;;7.60;103068.00;;;;5067045;28;20550;-75
2023/01/21 10:00:23;;;;;;;21.63;10.80;;;;;7.80;103073.00;;;;5070474;28;20660;-75
2023/01/21 10:02:59;;;;;;;19.35;9.82;;;;;7.80;103073.00;;;;5073350;28;20206;-76
2023/01/21 10:05:54;;;;;;;23.23;10.98;;;;;7.80;103072.00;;;;5085069;28;20229;-75
2023/01/21 10:08:30;;;;;;;23.90;10.85;;;;;7.90;103072.00;;;;5039203;28;20194;-76
2023/01/21 10:11:19;;;;;;;19.67;10.13;;;;;8.00;103074.00;;;;5083101;28;20214;-76
2023/01/21 10:14:08;;;;;;;21.20;10.45;;;;;8.00;103069.00;;;;5080313;28;20718;-76
2023/01/21 10:16:43;;;;;;;21.08;9.52;;;;;8.10;103070.00;;;;5079504;28;20281;-76
2023/01/21 10:19:16;;;;;;;22.15;11.43;;;;;8.10;103070.00;;;;5078770;28;20199;-76
2023/01/21 10:21:49;;;;;;;22.50;10.60;;;;;8.20;103072.00;;;;5088822;28;20194;-75
2023/01/21 10:24:24;;;;;;;21.58;9.77;;;;;8.20;103061.00;;;;5082575;28;20198;-76
2023/01/21 10:26:53;;;;;;;23.65;11.68;;;;;8.20;103070.00;;;;5086190;28;20224;-76
2023/01/21 10:29:24;;;;;;;24.52;10.82;;;;;8.20;103071.00;;;;5084313;28;20195;-76
2023/01/21 10:31:58;;;;;;;23.23;11.45;;;;;8.20;103076.00;;;;5077901;28;20219;-76
2023/01/21 10:34:29;;;;;;;22.55;10.20;;;;;8.20;103080.00;;;;5086087;28;21035;-76
2023/01/21 10:37:11;;;;;;;20.67;10.75;;;;;8.20;103085.00;;;;5091472;28;20187;-76
2023/01/21 10:39:48;;;;;;;20.88;9.95;;;;;8.20;103086.00;;;;5084649;28;20195;-76
2023/01/21 10:42:57;;;;;;;21.60;10.85;;;;;8.20;103089.00;;;;5070620;28;20203;-76
2023/01/21 10:45:31;;;;;;;22.08;10.82;;;;;8.20;103087.00;;;;5075397;28;20234;-75
2023/01/21 10:48:07;;;;;;;21.30;10.50;;;;;8.30;103090.00;;;;5089499;28;20194;-76
2023/01/21 10:50:46;;;;;;;23.70;10.88;;;;;8.30;103103.00;;;;5082156;28;20205;-76
2023/01/21 10:53:23;;;;;;;22.35;10.60;;;;;8.30;103100.00;;;;5070802;28;20206;-76
2023/01/21 10:56:03;;;;;;;23.98;11.30;;;;;8.30;103100.00;;;;5075635;28;20187;-76
2023/01/21 10:58:35;;;;;;;21.15;11.25;;;;;8.40;103106.00;;;;5085354;28;20197;-75
2023/01/21 11:01:07;;;;;;;21.80;10.82;;;;;8.40;103104.00;;;;5082912;28;20207;-75
2023/01/21 11:03:40;;;;;;;23.80;12.25;;;;;8.50;103100.00;;;;5075791;28;20194;-75
2023/01/21 11:06:10;;;;;;;24.15;12.68;;;;;8.50;103104.00;;;;5083720;28;20203;-76
2023/01/21 11:08:40;;;;;;;24.88;12.35;;;;;8.60;103104.00;;;;5074027;28;20202;-76
2023/01/21 11:11:09;;;;;;;22.85;11.38;;;;;8.60;103110.00;;;;5069445;28;20215;-77
2023/01/21 11:13:36;;;;;;;19.65;10.75;;;;;8.70;103103.00;;;;5078842;28;20210;-77
2023/01/21 11:16:04;;;;;;;24.08;11.05;;;;;8.70;103101.00;;;;5075603;28;20703;-77
2023/01/21 11:18:35;;;;;;;21.15;10.85;;;;;8.70;103103.00;;;;5081567;28;20213;-77
2023/01/21 11:21:09;;;;;;;22.80;11.48;;;;;8.80;103108.00;;;;5086338;28;20187;-76
2023/01/21 11:23:38;;;;;;;20.15;11.52;;;;;8.80;103097.00;;;;5076404;28;20194;-77
2023/01/21 11:26:16;;;;;;;22.95;11.70;;;;;8.80;103109.00;;;;5063608;28;20222;-76
2023/01/21 11:28:44;;;;;;;21.00;10.32;;;;;8.80;103102.00;;;;5080267;28;20202;-76
2023/01/21 11:31:14;;;;;;;22.63;11.43;;;;;8.80;103107.00;;;;5071544;28;20218;-76
2023/01/21 11:33:43;;;;;;;21.67;11.13;;;;;8.90;103096.00;;;;5079204;28;20195;-76
2023/01/21 11:36:14;;;;;;;21.10;11.52;;;;;8.90;103110.00;;;;5085178;28;20190;-76
2023/01/21 11:38:41;;;;;;;21.13;10.25;;;;;8.90;103103.00;;;;5077377;28;20194;-76
2023/01/21 11:41:20;;;;;;;24.95;11.48;;;;;8.90;103106.00;;;;5079771;28;20614;-76
2023/01/21 11:43:50;;;;;;;20.23;10.75;;;;;9.00;103103.00;;;;5071352;28;20221;-76
2023/01/21 11:46:30;;;;;;;22.23;11.02;;;;;8.90;103097.00;;;;5071920;28;20233;-76
2023/01/21 11:49:21;;;;;;;21.20;10.90;;;;;8.90;103101.00;;;;5077807;28;20197;-76
2023/01/21 11:51:49;;;;;;;21.27;10.65;;;;;9.00;103099.00;;;;5074359;28;20233;-76
2023/01/21 11:54:18;;;;;;;20.73;11.00;;;;;9.00;103095.00;;;;5073635;28;20202;-76
2023/01/21 11:56:55;;;;;;;21.00;10.68;;;;;9.00;103098.00;;;;5081425;28;20198;-76
2023/01/21 11:59:26;;;;;;;19.92;9.75;;;;;9.10;103096.00;;;;5079741;28;20213;-76
2023/01/21 12:01:58;;;;;;;22.00;11.23;;;;;9.10;103090.00;;;;5083880;28;20195;-76
2023/01/21 12:04:26;;;;;;;20.65;10.88;;;;;9.20;103089.00;;;;5079357;28;20191;-76
2023/01/21 12:06:56;;;;;;;22.20;11.63;;;;;9.20;103079.00;;;;5085053;28;20190;-76
2023/01/21 12:09:26;;;;;;;22.20;12.25;;;;;9.20;103086.00;;;;5072869;28;20195;-76
2023/01/21 12:12:16;;;;;;;20.63;11.13;;;;;9.20;103082.00;;;;5083688;28;20222;-76
2023/01/21 12:14:52;;;;;;;18.88;10.55;;;;;9.30;103081.00;;;;5074504;28;20191;-77
2023/01/21 12:17:30;;;;;;;21.50;10.73;;;;;9.30;103075.00;;;;5069606;28;20203;-76
2023/01/21 12:20:12;;;;;;;19.80;10.23;;;;;9.30;103076.00;;;;5086427;28;20202;-76